• Join FlightAware (Why Join?)
  • Login
  • US Flag 
05:58AM EDT


 

Airport Tracker/Info


-or-


 

Live Flight TrackerFlight Track Log ✈ TCF3494 ✈ 25-Jul-2013 ✈ KORD - KLGA

Flight Track Log - Related Links

Times and Time Zones

All times are in EDT time to prevent confusion due to time zone crossing. See the TCF3494 flight status page for this flight to view local times or setup timezone preferences in your user account.

Time Position Orientation Groundspeed Altitude Reporting Facility
EDT Latitude Longitude Course Direction KTS MPH feet Rate Location/Type
08:33PM 41.9167 -87.8833 90° East 188 216 2,900  Level Chicago TRACON
08:34PM 41.8981 -87.8581 135° Southeast 199 229 4,000 2,400 Climbing Chicago Center
08:35PM 41.8372 -87.7739 134° Southeast 267 307 6,900 2,760 Climbing Chicago Center
08:36PM 41.8297 -87.6719 96° East 281 323 9,800 2,700 Climbing Chicago Center
08:37PM 41.8514 -87.5622 75° East 299 344 12,600 2,220 Climbing Chicago Center
08:38PM 41.8742 -87.4425 76° East 325 374 14,400 1,740 Climbing Chicago Center
08:39PM 41.9333 -87.0341 90° East  Level FlightAware Approximate
08:39PM 41.9003 -87.3069 75° East 371 427 16,300  Level Chicago Center
08:40PM 41.9261 -87.1661 76° East 388 447 18,500 1,980 Climbing Chicago Center
08:41PM 41.9475 -86.9875 81° East 406 467 20,500 1,740 Climbing Chicago Center
08:42PM 41.9486 -86.8253 89° East 433 498 22,100 1,440 Climbing Chicago Center
08:43PM 41.9497 -86.6686 89° East 449 517 23,500 1,440 Climbing Chicago Center
08:44PM 41.9522 -86.4967 89° East 461 531 25,200 1,680 Climbing Chicago Center
08:45PM 41.9539 -86.2875 89° East 466 536 27,000 1,500 Climbing Chicago Center
08:46PM 41.9458 -86.1108 93° East 472 543 28,300 1,080 Climbing Chicago Center
08:47PM 41.9289 -85.9347 97° East 477 549 29,300 900 Climbing Chicago Center
08:48PM 41.9125 -85.7539 97° East 485 558 30,200 840 Climbing Chicago Center
08:49PM 41.8947 -85.5700 97° East 490 564 31,100 840 Climbing Chicago Center
08:50PM 41.8778 -85.3833 97° East 495 570 32,000 840 Climbing Chicago Center
08:52PM 41.8592 -85.1992 98° East 490 564 32,900 780 Climbing Chicago Center
08:53PM 41.8397 -85.0128 98° East 498 573 33,700 840 Climbing Chicago Center
08:54PM 41.8172 -84.7894 98° East 506 582 34,700 1,140 Climbing Chicago Center
08:55PM 41.7967 -84.6067 99° East 501 577 36,100 960 Climbing Chicago Center
08:55PM 41.7836 -84.4681 97° East 490 564 36,600 480 Climbing Cleveland Center
08:56PM 41.7789 -84.2953 92° East 480 552 37,000 180 Climbing Cleveland Center
08:57PM 41.7725 -84.0997 92° East 475 547 37,000  Level Cleveland Center
08:58PM 41.7714 -83.9272 90° East 475 547 37,000  Level Cleveland Center
08:59PM 41.7706 -83.7433 90° East 480 552 37,000  Level Cleveland Center
09:00PM 41.7669 -83.5678 92° East 480 552 37,000  Level Cleveland Center
09:01PM 41.7528 -83.3861 96° East 480 552 37,000  Level Cleveland Center
09:02PM 41.7381 -83.2072 96° East 480 552 37,000  Level Cleveland Center
09:03PM 41.7233 -83.0286 96° East 480 552 37,000  Level Cleveland Center
09:04PM 41.7103 -82.8472 95° East 486 559 37,000  Level Cleveland Center
09:05PM 41.6931 -82.6658 97° East 486 559 37,000  Level Cleveland Center
09:06PM 41.6772 -82.4903 97° East 486 559 37,000  Level Cleveland Center
09:07PM 41.6633 -82.3175 96° East 481 554 37,000  Level Cleveland Center
09:08PM 41.6511 -82.1450 95° East 476 548 37,000  Level Cleveland Center
09:09PM 41.6347 -81.9722 97° East 471 542 37,000  Level Cleveland Center
09:10PM 41.6158 -81.7969 98° East 471 542 37,000  Level Cleveland Center
09:11PM 41.6050 -81.6411 95° East 466 536 37,000  Level Cleveland Center
09:12PM 41.5856 -81.4686 99° East 466 536 37,000  Level Cleveland Center
09:13PM 41.5700 -81.2908 97° East 471 542 37,000  Level Cleveland Center
09:14PM 41.5503 -81.0992 98° East 471 542 37,000  Level Cleveland Center
09:15PM 41.5300 -80.9242 99° East 471 542 37,000  Level Cleveland Center
09:16PM 41.5117 -80.7411 98° East 482 555 37,000  Level Cleveland Center
09:17PM 41.4950 -80.5692 97° East 482 555 37,000  Level Cleveland Center
09:18PM 41.4761 -80.3975 98° East 477 549 37,000  Level Cleveland Center
09:19PM 41.4614 -80.2422 97° East 477 549 37,000  Level Cleveland Center
09:20PM 41.4439 -80.0736 98° East 466 536 37,000  Level Cleveland Center
09:21PM 41.4244 -79.9075 99° East 466 536 37,000  Level Cleveland Center
09:22PM 41.4044 -79.7306 99° East 466 536 37,000  Level Cleveland Center
09:23PM 41.3864 -79.5564 98° East 466 536 37,000  Level Cleveland Center
09:24PM 41.3681 -79.3825 98° East 466 536 37,000  Level Cleveland Center
09:25PM 41.3453 -79.2114 100° East 466 536 37,000  Level Cleveland Center
09:26PM 41.3264 -79.0486 99° East 459 528 37,000  Level Cleveland Center
09:27PM 41.3072 -78.8750 98° East 464 534 37,000  Level Cleveland Center
09:28PM 41.2881 -78.7039 98° East 464 534 37,000 -480 Level Cleveland Center
09:30PM 41.2547 -78.4411 99° East 480 552 35,800 -1,200 Descending New York Center
09:31PM 41.2325 -78.2703 100° East 474 545 34,000 -1,440 Descending New York Center
09:32PM 41.2081 -78.0936 100° East 461 531 33,000 -540 Descending New York Center
09:33PM 41.1872 -77.9231 99° East 456 525 33,000  Level New York Center
09:34PM 41.1672 -77.7694 100° East 461 531 33,000  Level New York Center
09:35PM 41.1475 -77.6047 99° East 461 531 33,000 -120 Level New York Center
09:36PM 41.1258 -77.4372 100° East 455 524 32,800 -1,080 Descending New York Center
09:37PM 41.1017 -77.2722 101° East 455 524 30,900 -1,980 Descending New York Center
09:38PM 41.0797 -77.1022 100° East 455 524 28,900 -2,040 Descending New York Center
09:39PM 41.0572 -76.9350 100° East 455 524 26,900 -2,040 Descending New York Center
09:40PM 41.0361 -76.7789 100° East 450 518 24,900 -1,920 Descending New York Center
09:41PM 41.0125 -76.6256 101° East 437 503 23,100 -1,860 Descending New York Center
09:42PM 40.9758 -76.4767 108° East 431 496 21,200 -1,860 Descending New York Center
09:43PM 40.9408 -76.3364 108° East 419 482 19,400 -1,920 Descending New York Center
09:44PM 40.9044 -76.1825 107° East 405 466 17,400 -1,260 Descending New York Center
09:45PM 40.8767 -76.0594 107° East 388 447 17,000 -840 Descending New York Center
09:46PM 40.8414 -75.9114 107° East 388 447 15,800 -1,560 Descending New York Center
09:47PM 40.8072 -75.7828 109° East 382 440 13,900 -1,440 Descending New York Center
09:48PM 40.7789 -75.6656 108° East 372 428 13,000 -480 Descending New York Center
09:49PM 40.7467 -75.5372 108° East 372 428 13,000  Level New York Center
09:50PM 40.7186 -75.4064 106° East 372 428 13,000  Level New York Center
09:51PM 40.6922 -75.2789 105° East 367 422 13,000 -480 Level New York Center
09:52PM 40.6636 -75.1511 106° East 361 415 12,100 -1,260 Descending New York Center
09:53PM 40.5986 -75.0539 131° Southeast 333 383 10,500 -1,080 Descending New York Center
09:54PM 40.5558 -74.9639 122° Southeast 309 356 10,000 -300 Descending New York Center
09:55PM 40.5317 -74.8833 112° Southeast 298 343 10,000  Level New York Center
09:56PM 40.4833 -74.7500 115° Southeast 300 345 10,000  Level New York TRACON
09:57PM 40.4667 -74.6500 102° East 298 343 10,000  Level New York TRACON
09:58PM 40.4333 -74.5500 114° Southeast 257 296 10,000 -120 Level New York TRACON
09:59PM 40.4167 -74.4833 108° East 220 253 9,800 -780 Descending New York TRACON
10:00PM 40.3833 -74.4167 123° Southeast 215 247 8,500 -1,140 Descending New York TRACON
10:01PM 40.3589 -74.3689 124° Southeast 202 232 7,600 -840 Descending New York Center
10:02PM 40.3775 -74.2992 71° East 166 191 7,000 -360 Descending New York Center
10:03PM 40.4042 -74.2433 58° Northeast 172 198 7,000 -300 Level New York Center
10:04PM 40.4375 -74.1794 56° Northeast 183 211 6,500 -720 Descending New York Center
10:05PM 40.4833 -74.1333 37° Northeast 185 213 5,600 -840 Descending New York TRACON
10:06PM 40.5167 -74.0833 49° Northeast 187 215 4,900 -780 Descending New York TRACON
10:07PM 40.5667 -74.0500 27° Northeast 186 214 4,100 -840 Descending New York TRACON
10:08PM 40.6000 -74.0167 37° Northeast 177 204 3,300 -720 Descending New York TRACON
10:09PM 40.6500 -73.9833 27° Northeast 164 189 2,700 -660 Descending New York TRACON
10:10PM 40.6833 -73.9500 37° Northeast 169 194 2,000 -720 Descending New York TRACON